Airport View

Enter AWOS ICAO identifier for current METAR.

ex. KFNL

KDHN 061553Z 14003KT 10SM BKN018 OVC070 27/23 A3000 RMK AO2 SLP153 T02720233

6 Jul 2020 16:21

Phone: 334-983-5999

Other Area AWOS: KHEY - KOZR - KLOR - KEDN

KDHN 061458Z 0615/0712 13005KT P6SM VCSH BKN025 FM070000 20010KT P6SM VCSH BKN035